Time;durP1;ratioP1;P1;durP2;ratioP2;P2;SDS_P1;SDS_P2;PMS_P1;PMS_P2;Temp;Humidity;BMP_temperature;BMP_pressure;BME280_temperature;BME280_humidity;BME280_pressure;Samples;Min_cycle;Max_cycle;Signal;HPM_P1;HPM_P2
2022/08/15 00:04:29;;;;;;;11.15;5.03;;;;;;;21.75;58.45;99603.19;18243900;32;20518;-55
2022/08/15 00:14:37;;;;;;;12.68;5.43;;;;;;;21.88;57.90;99597.97;18242839;32;20078;-55
2022/08/15 00:24:45;;;;;;;13.25;5.25;;;;;;;21.81;57.81;99610.78;18242532;32;20173;-55
2022/08/15 00:34:53;;;;;;;11.57;5.83;;;;;;;21.53;58.29;99601.81;18242267;32;20094;-55
2022/08/15 00:44:59;;;;;;;10.88;5.53;;;;;;;21.53;58.36;99606.28;18241997;32;20105;-55
2022/08/15 00:55:17;;;;;;;13.07;5.55;;;;;;;21.52;58.84;99610.75;18241352;32;20094;-55
2022/08/15 01:05:25;;;;;;;9.77;4.60;;;;;;;21.46;58.98;99619.06;18240203;32;20462;-55
2022/08/15 01:15:31;;;;;;;11.40;5.45;;;;;;;21.35;58.76;99617.91;18241216;32;20094;-55
2022/08/15 01:25:50;;;;;;;10.80;5.20;;;;;;;21.18;60.22;99620.72;18240436;32;20117;-55
2022/08/15 01:36:14;;;;;;;10.43;4.70;;;;;;;21.29;60.03;99604.16;18239749;32;20470;-55
2022/08/15 01:46:42;;;;;;;11.75;4.85;;;;;;;21.04;60.35;99609.12;18239179;32;20116;-55
2022/08/15 01:56:49;;;;;;;10.70;4.85;;;;;;;21.01;60.65;99627.03;18238646;32;20200;-55
2022/08/15 02:06:53;;;;;;;11.65;5.55;;;;;;;21.17;60.52;99617.22;18238363;32;20156;-55
2022/08/15 02:16:59;;;;;;;11.30;4.95;;;;;;;20.90;60.77;99617.88;18242933;32;20098;-55
2022/08/15 02:27:05;;;;;;;10.13;5.05;;;;;;;20.87;60.50;99606.59;18245623;32;20125;-55
2022/08/15 02:37:18;;;;;;;10.77;4.62;;;;;;;20.90;60.92;99599.31;18245067;32;20545;-55
2022/08/15 02:47:28;;;;;;;10.48;4.97;;;;;;;20.82;61.19;99601.56;18244970;32;20146;-55
2022/08/15 02:57:32;;;;;;;10.52;4.65;;;;;;;20.37;63.10;99606.72;18230812;32;20098;-55
2022/08/15 03:07:58;;;;;;;11.98;5.28;;;;;;;20.45;62.55;99614.22;18244494;32;20101;-55
2022/08/15 03:18:02;;;;;;;12.00;5.22;;;;;;;20.47;62.51;99615.88;18245404;32;20108;-55
2022/08/15 03:28:08;;;;;;;11.70;5.43;;;;;;;20.28;62.90;99616.03;18243162;32;20486;-55
2022/08/15 03:38:30;;;;;;;11.68;5.75;;;;;;;20.34;62.29;99626.28;18241379;32;72027;-55
2022/08/15 03:48:57;;;;;;;12.73;5.80;;;;;;;20.45;62.48;99619.53;18244470;32;20117;-55
2022/08/15 03:59:02;;;;;;;12.37;5.53;;;;;;;20.55;62.41;99618.06;18243236;32;20116;-55
2022/08/15 04:09:08;;;;;;;10.82;5.75;;;;;;;20.37;62.99;99626.13;18242988;32;20427;-55
2022/08/15 04:19:19;;;;;;;11.12;4.78;;;;;;;20.45;62.04;99632.78;18242493;32;20094;-55
2022/08/15 04:29:24;;;;;;;11.20;5.07;;;;;;;20.85;61.49;99635.84;18243830;32;20128;-55
2022/08/15 04:39:27;;;;;;;13.70;5.62;;;;;;;21.31;59.95;99615.53;18242098;32;20102;-55
2022/08/15 04:49:36;;;;;;;11.77;5.37;;;;;;;21.60;59.75;99618.22;18278557;32;20098;-55
2022/08/15 04:59:40;;;;;;;10.95;5.35;;;;;;;21.24;63.15;99638.06;18300559;32;20100;-55
2022/08/15 05:10:08;;;;;;;12.88;5.25;;;;;;;21.89;61.41;99639.53;18305482;32;20461;-55
2022/08/15 05:20:16;;;;;;;12.10;5.15;;;;;;;22.36;61.11;99624.22;18303977;32;20121;-55
2022/08/15 05:30:22;;;;;;;9.98;4.95;;;;;;;22.85;59.91;99627.31;18302780;32;20458;-55
2022/08/15 05:40:38;;;;;;;10.43;4.95;;;;;;;23.39;57.14;99606.91;18288088;32;20124;-55
2022/08/15 05:50:51;;;;;;;11.13;5.07;;;;;;;23.90;57.08;99621.16;18285466;32;20430;-55
2022/08/15 06:01:04;;;;;;;;;;;;;;;24.65;54.66;99630.03;18286682;32;20111;-55
2022/08/15 06:11:26;;;;;;;10.70;4.53;;;;;;;25.54;52.52;99627.03;18289137;32;19981;-55
2022/08/15 06:21:38;;;;;;;8.98;4.55;;;;;;;25.43;51.29;99632.31;18300749;32;20086;-55
2022/08/15 06:31:48;;;;;;;8.85;4.37;;;;;;;26.39;49.05;99622.19;18294366;32;20093;-56
2022/08/15 06:42:01;;;;;;;10.73;4.50;;;;;;;26.74;48.22;99615.72;18299119;32;20102;-56
2022/08/15 06:52:07;;;;;;;9.73;4.55;;;;;;;27.27;46.77;99616.72;18298859;32;20485;-54
2022/08/15 07:02:32;;;;;;;11.80;4.57;;;;;;;26.94;47.68;99632.00;18285458;32;20336;-55
2022/08/15 07:12:48;;;;;;;10.07;4.50;;;;;;;26.86;48.80;99629.09;18306840;32;20097;-56
2022/08/15 07:22:55;;;;;;;10.20;4.57;;;;;;;26.99;47.68;99624.44;18307277;32;20085;-55
2022/08/15 07:33:00;;;;;;;9.55;4.50;;;;;;;28.67;42.49;99620.69;18287756;32;20116;-55
2022/08/15 07:43:05;;;;;;;9.07;4.25;;;;;;;30.16;39.74;99621.28;18282120;32;20099;-55
2022/08/15 07:53:17;;;;;;;11.70;4.80;;;;;;;29.97;38.89;99622.22;18304487;32;20421;-55
2022/08/15 08:03:23;;;;;;;10.73;4.37;;;;;;;29.70;40.91;99619.34;18285073;32;20494;-55
2022/08/15 08:13:42;;;;;;;9.82;4.05;;;;;;;29.89;40.40;99612.19;18257812;32;20608;-55
2022/08/15 08:23:49;;;;;;;14.57;4.57;;;;;;;30.25;39.59;99603.41;18305872;32;20137;-55
2022/08/15 08:34:06;;;;;;;10.35;4.07;;;;;;;30.94;38.77;99611.00;18305068;32;20346;-55
2022/08/15 08:44:18;;;;;;;8.80;3.80;;;;;;;30.85;37.76;99616.31;18291877;32;20433;-55
2022/08/15 08:54:37;;;;;;;10.27;4.30;;;;;;;31.49;34.67;99615.31;18304690;32;20112;-55
2022/08/15 09:05:07;;;;;;;9.20;4.45;;;;;;;31.04;35.82;99602.81;18303124;32;20101;-56
2022/08/15 09:15:17;;;;;;;7.43;3.37;;;;;;;32.26;33.69;99592.03;18303659;32;20450;-55
2022/08/15 09:25:23;;;;;;;7.18;3.37;;;;;;;33.25;30.65;99588.59;18254054;32;20383;-55
2022/08/15 09:35:56;;;;;;;8.35;3.72;;;;;;;33.14;29.67;99573.56;18297271;32;20086;-55
2022/08/15 09:46:26;;;;;;;7.68;3.85;;;;;;;32.41;31.25;99557.16;18302180;32;20116;-54
2022/08/15 09:56:46;;;;;;;6.72;3.50;;;;;;;33.09;29.10;99548.94;18261268;32;20160;-55
2022/08/15 10:06:59;;;;;;;7.68;3.90;;;;;;;34.50;27.33;99545.63;18256249;32;20099;-55
2022/08/15 10:17:22;;;;;;;8.55;3.70;;;;;;;34.91;27.28;99524.66;18286726;32;20395;-55
2022/08/15 10:27:56;;;;;;;8.02;3.37;;;;;;;35.51;25.73;99503.84;18300340;32;20142;-55
2022/08/15 10:38:07;;;;;;;8.20;3.28;;;;;;;35.78;24.18;99500.63;18294396;32;20082;-55
2022/08/15 10:48:44;;;;;;;7.55;3.40;;;;;;;34.56;25.53;99495.31;18295038;32;20149;-55
2022/08/15 10:59:03;;;;;;;8.70;3.37;;;;;;;35.72;25.43;99483.25;18292144;32;20094;-55
2022/08/15 11:09:08;;;;;;;6.78;3.40;;;;;;;36.39;23.90;99469.53;18307768;32;20400;-55
2022/08/15 11:19:19;;;;;;;5.22;2.75;;;;;;;35.89;23.25;99461.28;18308294;32;20120;-55
2022/08/15 11:29:44;;;;;;;6.55;2.90;;;;;;;36.81;21.81;99463.41;18295572;32;20363;-55
2022/08/15 11:40:02;;;;;;;9.25;3.47;;;;;;;36.30;21.93;99462.56;18243865;32;20134;-55
2022/08/15 11:50:24;;;;;;;5.80;3.00;;;;;;;37.22;20.62;99457.16;18305685;32;20656;-55
2022/08/15 12:00:40;;;;;;;;;;;;;;;36.23;21.23;99451.63;18306418;32;20097;-55
2022/08/15 12:10:45;;;;;;;4.78;2.47;;;;;;;36.79;20.76;99436.41;18304041;32;20033;-55
2022/08/15 12:21:08;;;;;;;6.22;2.53;;;;;;;37.37;19.34;99420.81;18297151;32;20101;-55
2022/08/15 12:31:24;;;;;;;6.03;2.50;;;;;;;37.03;19.51;99420.66;18327945;32;20098;-55
2022/08/15 12:41:33;;;;;;;5.65;2.58;;;;;;;37.72;18.06;99410.69;18368588;32;20097;-55
2022/08/15 12:51:57;;;;;;;5.95;2.60;;;;;;;37.02;19.21;99406.19;18369192;32;20418;-55
2022/08/15 13:02:04;;;;;;;4.22;2.28;;;;;;;37.74;19.24;99386.81;18367307;32;20088;-55
2022/08/15 13:12:09;;;;;;;5.65;2.40;;;;;;;37.65;17.14;99382.59;18368452;32;20089;-56
2022/08/15 13:32:49;;;;;;;;;;;;;;;38.20;18.46;99368.03;18167195;32;20221;-55
2022/08/15 13:42:55;;;;;;;5.75;2.62;;;;;;;37.81;18.80;99370.50;18165042;32;20036;-55
2022/08/15 13:53:05;;;;;;;5.45;2.70;;;;;;;37.54;18.75;99345.13;18166442;32;20696;-55
2022/08/15 14:03:10;;;;;;;5.37;2.35;;;;;;;36.95;19.65;99350.97;18200919;32;20097;-55
2022/08/15 14:13:21;;;;;;;6.00;2.62;;;;;;;35.94;21.01;99345.66;18306232;32;20089;-55
2022/08/15 14:23:26;;;;;;;6.60;2.58;;;;;;;36.58;19.42;99339.50;18262433;32;20121;-55
2022/08/15 14:33:49;;;;;;;6.87;2.20;;;;;;;36.79;18.49;99336.66;18284773;32;20110;-55
2022/08/15 14:44:15;;;;;;;7.10;2.62;;;;;;;35.49;21.04;99334.97;18303376;32;20172;-55
2022/08/15 14:54:38;;;;;;;4.90;2.53;;;;;;;35.03;21.24;99327.94;18306307;32;20100;-55
2022/08/15 15:04:51;;;;;;;6.25;2.42;;;;;;;34.61;22.21;99327.63;18305235;32;20834;-55
2022/08/15 15:14:57;;;;;;;5.00;2.53;;;;;;;34.91;22.55;99322.19;18290231;32;20465;-55
2022/08/15 15:25:02;;;;;;;5.90;2.50;;;;;;;35.23;21.84;99330.09;18294946;32;20477;-55
2022/08/15 15:35:08;;;;;;;5.70;2.53;;;;;;;35.37;21.19;99322.94;18305155;32;20127;-55
2022/08/15 15:45:13;;;;;;;5.20;2.67;;;;;;;35.13;21.60;99319.56;18305660;32;20089;-55
2022/08/15 15:55:17;;;;;;;5.00;2.40;;;;;;;35.17;20.35;99309.19;18301816;32;20097;-55
2022/08/15 16:05:23;;;;;;;5.72;2.53;;;;;;;35.59;20.07;99315.69;18304430;32;20094;-55
2022/08/15 16:15:52;;;;;;;4.28;2.30;;;;;;;35.05;20.87;99320.53;18304662;32;20149;-55
2022/08/15 16:26:05;;;;;;;4.18;2.30;;;;;;;34.93;21.41;99332.84;18291460;32;20128;-55
2022/08/15 16:36:27;;;;;;;6.45;2.83;;;;;;;34.71;21.92;99330.06;18290843;32;20101;-55
2022/08/15 16:46:42;;;;;;;6.68;2.97;;;;;;;34.34;22.40;99327.22;18298347;32;20101;-55
2022/08/15 16:56:57;;;;;;;5.72;2.67;;;;;;;34.29;22.56;99335.06;18304206;32;20354;-55
2022/08/15 17:07:13;;;;;;;4.70;2.35;;;;;;;34.11;23.94;99347.06;18296188;32;20428;-55
2022/08/15 17:17:25;;;;;;;4.47;2.22;;;;;;;33.90;24.47;99348.56;18294459;32;20584;-56
2022/08/15 17:27:36;;;;;;;5.68;2.42;;;;;;;33.58;24.88;99357.78;18287924;32;20723;-55
2022/08/15 17:38:01;;;;;;;6.18;2.35;;;;;;;33.15;25.84;99361.72;18299814;32;20116;-55
2022/08/15 17:48:15;;;;;;;7.28;2.53;;;;;;;32.57;28.81;99388.88;18301830;32;20109;-55
2022/08/15 17:58:36;;;;;;;8.75;3.20;;;;;;;31.72;31.18;99398.13;18301912;32;20086;-55
2022/08/15 18:08:43;;;;;;;7.60;2.80;;;;;;;31.69;31.28;99412.75;18285070;32;20163;-55
2022/08/15 18:19:04;;;;;;;7.55;2.92;;;;;;;31.34;32.92;99428.16;18304926;32;20093;-55
2022/08/15 18:29:19;;;;;;;7.65;3.10;;;;;;;30.91;34.67;99438.88;18297318;32;20117;-55
2022/08/15 18:50:18;;;;;;;8.02;3.15;;;;;;;30.34;34.99;99465.22;18282668;32;20454;-55
2022/08/15 19:00:55;;;;;;;9.23;3.65;;;;;;;30.12;35.91;99470.06;18322833;32;20162;-55
2022/08/15 19:11:00;;;;;;;10.07;3.85;;;;;;;29.90;36.98;99487.47;18324448;32;20137;-55
2022/08/15 19:21:04;;;;;;;9.40;3.20;;;;;;;29.63;37.28;99500.75;18287211;32;20362;-55
2022/08/15 19:31:20;;;;;;;9.43;3.53;;;;;;;29.30;38.90;99511.06;18308624;32;20111;-55
2022/08/15 19:41:47;;;;;;;8.65;3.40;;;;;;;29.14;39.35;99509.00;18303661;32;20407;-55
2022/08/15 19:52:07;;;;;;;11.88;3.53;;;;;;;28.75;39.76;99514.44;18351108;32;20473;-56
2022/08/15 20:02:20;;;;;;;8.43;3.10;;;;;;;28.41;40.69;99522.91;18302025;32;20105;-57
2022/08/15 20:12:35;;;;;;;6.90;3.53;;;;;;;28.11;41.02;99512.97;18297604;32;20090;-55
2022/08/15 20:22:42;;;;;;;22.15;5.18;;;;;;;27.82;41.02;99527.16;18291440;32;20102;-55
2022/08/15 20:32:52;;;;;;;8.00;3.22;;;;;;;27.69;41.10;99526.53;18319439;32;20457;-55
2022/08/15 20:43:00;;;;;;;7.30;3.42;;;;;;;27.03;43.24;99549.19;18300099;32;20113;-55
2022/08/15 20:53:14;;;;;;;9.40;3.80;;;;;;;27.21;43.56;99558.31;18298271;32;20106;-55
2022/08/15 21:03:22;;;;;;;6.35;3.40;;;;;;;27.05;43.47;99563.31;18316437;32;20097;-55
2022/08/15 21:13:59;;;;;;;10.15;3.42;;;;;;;26.99;43.92;99562.84;18281977;32;20548;-56
2022/08/15 21:24:27;;;;;;;9.35;3.37;;;;;;;27.03;44.07;99570.59;18282311;32;20126;-56
2022/08/15 21:34:33;;;;;;;9.15;4.03;;;;;;;26.92;45.10;99584.91;18301314;32;20101;-56
2022/08/15 21:44:40;;;;;;;10.45;4.20;;;;;;;26.73;45.80;99581.06;18239666;32;20470;-56
2022/08/15 21:54:50;;;;;;;11.43;4.03;;;;;;;26.62;46.55;99598.00;18239392;32;20102;-56
2022/08/15 22:04:56;;;;;;;8.47;3.47;;;;;;;26.62;46.68;99610.56;18281125;32;20181;-56
2022/08/15 22:15:04;;;;;;;7.53;3.05;;;;;;;26.55;46.55;99607.53;18238141;32;20116;-56
2022/08/15 22:25:08;;;;;;;5.75;3.00;;;;;;;26.65;45.02;99608.44;18237657;32;20505;-55
2022/08/15 22:35:14;;;;;;;9.80;3.33;;;;;;;26.41;46.06;99595.28;18243521;32;20113;-55
2022/08/15 22:45:25;;;;;;;6.53;2.97;;;;;;;26.28;46.22;99587.44;18261280;32;20112;-55
2022/08/15 22:55:50;;;;;;;7.07;3.00;;;;;;;25.89;47.11;99588.66;18245966;32;20119;-55
2022/08/15 23:05:59;;;;;;;7.55;3.30;;;;;;;25.71;48.17;99582.94;18244228;32;20102;-55
2022/08/15 23:16:27;;;;;;;7.07;3.03;;;;;;;25.49;48.01;99586.41;18231234;32;20160;-55
2022/08/15 23:26:39;;;;;;;8.20;3.50;;;;;;;25.17;48.71;99579.91;18230097;32;20116;-55
2022/08/15 23:37:06;;;;;;;7.12;3.03;;;;;;;24.99;49.18;99574.19;18243785;32;20132;-55
2022/08/15 23:47:18;;;;;;;7.57;3.37;;;;;;;24.86;49.82;99589.44;18242900;32;20435;-55
2022/08/15 23:57:28;;;;;;;8.35;3.62;;;;;;;24.75;51.02;99587.53;18244639;32;20094;-56
